Time;durP1;ratioP1;P1;durP2;ratioP2;P2;SDS_P1;SDS_P2;PMS_P1;PMS_P2;Temp;Humidity;BMP_temperature;BMP_pressure;BME280_temperature;BME280_humidity;BME280_pressure;Samples;Min_cycle;Max_cycle;Signal;HPM_P1;HPM_P2
2022/05/14 00:01:33;;;;;;;14.80;5.15;;;;;;;-145.50;100.00;65435.88;5059870;28;20131;-65
2022/05/14 00:04:01;;;;;;;8.82;3.58;;;;;;;-145.50;100.00;65435.88;5062956;28;20048;-65
2022/05/14 00:06:29;;;;;;;13.13;4.10;;;;;;;-145.50;100.00;65435.88;5059202;28;20048;-64
2022/05/14 00:08:56;;;;;;;9.73;3.55;;;;;;;-145.50;100.00;65435.88;5059627;28;20044;-64
2022/05/14 00:14:09;;;;;;;12.85;3.78;;;;;;;-145.50;100.00;65435.88;5067565;28;20076;-64
2022/05/14 00:16:36;;;;;;;12.80;3.50;;;;;;;-145.50;100.00;65435.88;5050299;28;20105;-66
2022/05/14 00:19:05;;;;;;;10.35;3.33;;;;;;;-145.50;100.00;65435.88;5059088;28;20066;-64
2022/05/14 00:21:32;;;;;;;11.55;3.65;;;;;;;-145.50;100.00;65435.88;5047237;28;20135;-64
2022/05/14 00:23:58;;;;;;;11.85;3.50;;;;;;;-145.50;100.00;65435.88;5053209;28;20044;-64
2022/05/14 00:26:26;;;;;;;12.25;3.20;;;;;;;-145.50;100.00;65435.88;5058510;28;20064;-64
2022/05/14 00:28:53;;;;;;;11.63;3.63;;;;;;;-145.50;100.00;65435.88;5068774;28;20058;-65
2022/05/14 00:31:19;;;;;;;13.73;3.38;;;;;;;-145.50;100.00;65435.88;5063339;28;20534;-64
2022/05/14 00:33:46;;;;;;;7.75;2.72;;;;;;;-145.50;100.00;65435.88;5052159;28;20088;-64
2022/05/14 00:36:12;;;;;;;8.80;2.30;;;;;;;-145.50;100.00;65435.88;5069458;28;20140;-64
2022/05/14 00:38:39;;;;;;;10.00;2.72;;;;;;;-145.50;100.00;65435.88;5049718;28;20079;-65
2022/05/14 00:41:07;;;;;;;12.32;2.90;;;;;;;-145.50;100.00;65435.88;5062055;28;20502;-65
2022/05/14 00:43:46;;;;;;;9.68;2.47;;;;;;;-145.50;100.00;65435.88;5068930;28;20066;-64
2022/05/14 00:46:22;;;;;;;8.75;2.95;;;;;;;-145.50;100.00;65435.88;5058159;28;20063;-63
2022/05/14 00:48:51;;;;;;;12.13;2.70;;;;;;;-145.50;100.00;65435.88;5063799;28;20075;-63
2022/05/14 00:51:28;;;;;;;8.50;2.70;;;;;;;-145.50;100.00;65435.88;5055045;28;20563;-63
2022/05/14 00:53:59;;;;;;;8.13;2.80;;;;;;;-145.50;100.00;65435.88;5076637;28;20439;-63
2022/05/14 00:56:32;;;;;;;10.65;3.05;;;;;;;-145.50;100.00;65435.88;5062126;28;20058;-64
2022/05/14 00:59:07;;;;;;;10.27;2.80;;;;;;;-145.50;100.00;65435.88;5072274;28;20135;-64
2022/05/14 01:01:35;;;;;;;11.23;2.70;;;;;;;-145.50;100.00;65435.88;5054209;28;20056;-64
2022/05/14 01:04:02;;;;;;;11.95;3.78;;;;;;;-145.50;100.00;65435.88;5063603;28;20583;-63
2022/05/14 01:06:29;;;;;;;9.48;3.22;;;;;;;-145.50;100.00;65435.88;5048013;28;20490;-64
2022/05/14 01:08:59;;;;;;;10.40;3.00;;;;;;;-145.50;100.00;65435.88;5061274;28;20430;-64
2022/05/14 01:11:29;;;;;;;9.98;2.90;;;;;;;-145.50;100.00;65435.88;5071200;28;20066;-63
2022/05/14 01:13:56;;;;;;;10.70;3.33;;;;;;;-145.50;100.00;65435.88;5053288;28;20083;-63
2022/05/14 01:16:26;;;;;;;13.93;3.13;;;;;;;-145.50;100.00;65435.88;5061219;28;20060;-64
2022/05/14 01:18:52;;;;;;;7.22;2.70;;;;;;;-145.50;100.00;65435.88;5049143;28;20136;-61
2022/05/14 01:21:38;;;;;;;18.48;3.33;;;;;;;-145.50;100.00;65435.88;5073507;28;20053;-64
2022/05/14 01:27:00;;;;;;;11.88;3.35;;;;;;;-145.50;100.00;65435.88;5078779;28;20054;-64
2022/05/14 01:29:26;;;;;;;10.90;3.13;;;;;;;-145.50;100.00;65435.88;5082009;28;20048;-63
2022/05/14 01:31:54;;;;;;;9.70;3.00;;;;;;;-145.50;100.00;65435.88;5066261;28;20082;-64
2022/05/14 01:34:24;;;;;;;11.48;3.47;;;;;;;-145.50;100.00;65435.88;5067965;28;20057;-64
2022/05/14 01:36:51;;;;;;;12.05;4.20;;;;;;;-145.50;100.00;65435.88;5070198;28;20052;-63
2022/05/14 01:39:18;;;;;;;9.40;3.42;;;;;;;-145.50;100.00;65435.88;5072829;28;20643;-65
2022/05/14 01:41:45;;;;;;;11.85;3.50;;;;;;;-145.50;100.00;65435.88;5053662;28;20062;-64
2022/05/14 01:44:11;;;;;;;12.80;3.40;;;;;;;-145.50;100.00;65435.88;5069215;28;20194;-64
2022/05/14 01:46:38;;;;;;;8.80;3.13;;;;;;;-145.50;100.00;65435.88;5073637;28;20050;-63
2022/05/14 01:49:05;;;;;;;8.77;3.10;;;;;;;-145.50;100.00;65435.88;5065822;28;20044;-63
2022/05/14 01:51:32;;;;;;;9.57;2.58;;;;;;;-145.50;100.00;65435.88;5060518;28;20068;-64
2022/05/14 01:53:59;;;;;;;8.47;3.00;;;;;;;-145.50;100.00;65435.88;5063848;28;20479;-65
2022/05/14 01:56:26;;;;;;;10.52;3.10;;;;;;;-145.50;100.00;65435.88;5081431;28;20109;-64
2022/05/14 01:58:52;;;;;;;9.63;3.08;;;;;;;-145.50;100.00;65435.88;5072322;28;20647;-64
2022/05/14 02:01:19;;;;;;;10.10;2.83;;;;;;;-145.50;100.00;65435.88;5069240;28;20135;-63
2022/05/14 02:03:48;;;;;;;14.00;2.72;;;;;;;-145.50;100.00;65435.88;5082173;28;20064;-63
2022/05/14 02:06:15;;;;;;;15.05;3.08;;;;;;;-145.50;100.00;65435.88;5073271;28;20513;-64
2022/05/14 02:08:42;;;;;;;13.75;3.35;;;;;;;-145.50;100.00;65435.88;5081741;28;20142;-64
2022/05/14 02:11:10;;;;;;;7.93;2.70;;;;;;;-145.50;100.00;65435.88;5063951;28;20182;-65
2022/05/14 02:13:37;;;;;;;11.23;2.95;;;;;;;-145.50;100.00;65435.88;5056293;28;20102;-64
2022/05/14 02:16:04;;;;;;;8.45;2.80;;;;;;;-145.50;100.00;65435.88;5056132;28;20143;-64
2022/05/14 02:18:30;;;;;;;7.95;2.90;;;;;;;-145.50;100.00;65435.88;5053924;28;20371;-63
2022/05/14 02:20:57;;;;;;;9.23;2.63;;;;;;;-145.50;100.00;65435.88;5071736;28;20174;-64
2022/05/14 02:23:24;;;;;;;13.07;3.13;;;;;;;-145.50;100.00;65435.88;5057679;28;20051;-64
2022/05/14 02:25:51;;;;;;;6.70;2.70;;;;;;;-145.50;100.00;65435.88;5060012;28;20053;-65
2022/05/14 02:28:18;;;;;;;8.75;2.70;;;;;;;-145.50;100.00;65435.88;5026328;28;20052;-64
2022/05/14 02:30:44;;;;;;;9.80;3.10;;;;;;;-145.50;100.00;65435.88;5059965;28;20137;-63
2022/05/14 02:33:11;;;;;;;8.85;2.75;;;;;;;-145.50;100.00;65435.88;5061056;28;20490;-64
2022/05/14 02:35:38;;;;;;;10.80;3.05;;;;;;;-145.50;100.00;65435.88;5064132;28;20043;-64
2022/05/14 02:38:06;;;;;;;9.27;2.90;;;;;;;-145.50;100.00;65435.88;5081916;28;20544;-64
2022/05/14 02:40:32;;;;;;;8.48;2.90;;;;;;;-145.50;100.00;65435.88;5054186;28;20052;-64
2022/05/14 02:42:59;;;;;;;12.80;2.88;;;;;;;-145.50;100.00;65435.88;5055452;28;20086;-64
2022/05/14 02:45:26;;;;;;;11.05;3.97;;;;;;;-145.50;100.00;65435.88;5057381;28;20048;-64
2022/05/14 02:47:52;;;;;;;7.25;3.05;;;;;;;-145.50;100.00;65435.88;5071945;28;20048;-64
2022/05/14 02:50:19;;;;;;;12.55;3.28;;;;;;;-145.50;100.00;65435.88;5068540;28;20493;-64
2022/05/14 02:52:46;;;;;;;7.68;2.95;;;;;;;-145.50;100.00;65435.88;5057206;28;20062;-63
2022/05/14 02:55:13;;;;;;;9.98;3.97;;;;;;;-145.50;100.00;65435.88;5064330;28;20406;-64
2022/05/14 02:57:40;;;;;;;11.05;3.20;;;;;;;-145.50;100.00;65435.88;5046188;28;20051;-64
2022/05/14 03:00:10;;;;;;;8.73;3.00;;;;;;;-145.50;100.00;65435.88;5059715;28;20168;-64
2022/05/14 03:02:37;;;;;;;10.77;3.47;;;;;;;-145.50;100.00;65435.88;5053576;28;20052;-64
2022/05/14 03:05:05;;;;;;;13.05;3.05;;;;;;;-145.50;100.00;65435.88;5063935;28;20052;-64
2022/05/14 03:07:32;;;;;;;7.57;2.65;;;;;;;-145.50;100.00;65435.88;5059798;28;20138;-64
2022/05/14 03:09:58;;;;;;;13.23;3.33;;;;;;;-145.50;100.00;65435.88;5044265;28;20136;-64
2022/05/14 03:12:25;;;;;;;10.30;2.70;;;;;;;-145.50;100.00;65435.88;5059948;28;20051;-63
2022/05/14 03:14:52;;;;;;;8.43;2.70;;;;;;;-145.50;100.00;65435.88;5067223;28;20143;-64
2022/05/14 03:17:19;;;;;;;10.38;3.92;;;;;;;-145.50;100.00;65435.88;5071184;28;20087;-69
2022/05/14 03:19:45;;;;;;;10.88;3.50;;;;;;;-145.50;100.00;65435.88;5055464;28;20048;-63
2022/05/14 03:22:11;;;;;;;6.88;2.70;;;;;;;-145.50;100.00;65435.88;5059084;28;20063;-62
2022/05/14 03:24:38;;;;;;;11.05;3.47;;;;;;;-145.50;100.00;65435.88;5065930;28;20149;-63
2022/05/14 03:27:06;;;;;;;10.10;2.97;;;;;;;-145.50;100.00;65435.88;5056094;28;20155;-63
2022/05/14 03:29:34;;;;;;;9.20;3.00;;;;;;;-145.50;100.00;65435.88;5059324;28;20416;-63
2022/05/14 03:32:01;;;;;;;9.50;3.25;;;;;;;-145.50;100.00;65435.88;5052842;28;20166;-65
2022/05/14 03:34:28;;;;;;;10.20;3.08;;;;;;;-145.50;100.00;65435.88;5052717;28;20473;-64
2022/05/14 03:36:54;;;;;;;8.30;3.10;;;;;;;-145.50;100.00;65435.88;5041523;28;20494;-63
2022/05/14 03:39:21;;;;;;;9.13;3.08;;;;;;;-145.50;100.00;65435.88;5058581;28;20549;-63
2022/05/14 03:41:47;;;;;;;9.27;2.85;;;;;;;-145.50;100.00;65435.88;5060146;28;20454;-64
2022/05/14 03:44:14;;;;;;;10.82;3.10;;;;;;;-145.50;100.00;65435.88;5052982;28;20614;-64
2022/05/14 03:46:42;;;;;;;8.30;3.10;;;;;;;-145.50;100.00;65435.88;5060909;28;20105;-64
2022/05/14 03:49:09;;;;;;;6.43;3.00;;;;;;;-145.50;100.00;65435.88;5051707;28;20138;-62
2022/05/14 03:51:36;;;;;;;8.02;3.17;;;;;;;-145.50;100.00;65435.88;5060620;28;20379;-64
2022/05/14 03:54:04;;;;;;;9.52;3.10;;;;;;;-145.50;100.00;65435.88;5064804;28;20054;-64
2022/05/14 03:56:32;;;;;;;7.47;2.83;;;;;;;-145.50;100.00;65435.88;5071488;28;20556;-64
2022/05/14 03:58:58;;;;;;;10.77;3.10;;;;;;;-145.50;100.00;65435.88;5051536;28;20158;-64
2022/05/14 04:01:25;;;;;;;9.52;3.00;;;;;;;-145.50;100.00;65435.88;5037131;28;20140;-63
2022/05/14 04:03:51;;;;;;;10.25;3.75;;;;;;;-145.50;100.00;65435.88;5059907;28;20045;-64
2022/05/14 04:06:18;;;;;;;11.35;3.40;;;;;;;-145.50;100.00;65435.88;5057935;28;20044;-64
2022/05/14 04:08:44;;;;;;;7.57;3.08;;;;;;;-145.50;100.00;65435.88;5071105;28;20044;-63
2022/05/14 04:11:11;;;;;;;7.30;3.10;;;;;;;-145.50;100.00;65435.88;5053428;28;20092;-63
2022/05/14 04:13:37;;;;;;;9.20;3.20;;;;;;;-145.50;100.00;65435.88;5068115;28;20102;-63
2022/05/14 04:16:04;;;;;;;10.60;3.65;;;;;;;-145.50;100.00;65435.88;5057738;28;20455;-63
2022/05/14 04:18:31;;;;;;;12.82;3.97;;;;;;;-145.50;100.00;65435.88;5070729;28;20077;-63
2022/05/14 04:20:59;;;;;;;8.98;3.33;;;;;;;-145.50;100.00;65435.88;5079167;28;20480;-64
2022/05/14 04:23:30;;;;;;;9.90;3.50;;;;;;;-145.50;100.00;65435.88;5071120;28;20058;-64
2022/05/14 04:25:59;;;;;;;11.07;3.40;;;;;;;-145.50;100.00;65435.88;5074857;28;20167;-64
2022/05/14 04:28:26;;;;;;;10.57;3.17;;;;;;;-145.50;100.00;65435.88;5065394;28;20421;-63
2022/05/14 04:30:53;;;;;;;8.40;3.50;;;;;;;-145.50;100.00;65435.88;5068010;28;20048;-63
2022/05/14 04:33:20;;;;;;;9.02;3.47;;;;;;;-145.50;100.00;65435.88;5058815;28;20052;-64
2022/05/14 04:35:47;;;;;;;12.80;3.75;;;;;;;-145.50;100.00;65435.88;5061767;28;20047;-64
2022/05/14 04:38:13;;;;;;;12.43;4.78;;;;;;;-145.50;100.00;65435.88;5079080;28;20511;-62
2022/05/14 04:40:40;;;;;;;11.13;3.75;;;;;;;-145.50;100.00;65435.88;5061067;28;21117;-64
2022/05/14 04:43:09;;;;;;;10.43;3.20;;;;;;;-145.50;100.00;65435.88;5053953;28;20329;-64
2022/05/14 04:45:37;;;;;;;;;;;;;;;-145.50;100.00;65435.88;5059367;28;20583;-63
2022/05/14 04:48:05;;;;;;;13.77;3.80;;;;;;;-145.50;100.00;65435.88;5069084;28;19924;-64
2022/05/14 04:50:32;;;;;;;10.52;4.00;;;;;;;-145.50;100.00;65435.88;5078657;28;20131;-63
2022/05/14 04:52:59;;;;;;;9.32;3.55;;;;;;;-145.50;100.00;65435.88;5067185;28;20051;-64
2022/05/14 04:55:25;;;;;;;9.93;3.60;;;;;;;-145.50;100.00;65435.88;5069457;28;20048;-62
2022/05/14 04:57:52;;;;;;;10.68;3.95;;;;;;;-145.50;100.00;65435.88;5062527;28;20087;-62
2022/05/14 05:00:19;;;;;;;10.90;4.00;;;;;;;-145.50;100.00;65435.88;5067348;28;20082;-64
2022/05/14 05:05:31;;;;;;;13.02;4.65;;;;;;;-145.50;100.00;65435.88;5067157;28;20320;-64
2022/05/14 05:07:59;;;;;;;11.00;4.25;;;;;;;-145.50;100.00;65435.88;5069553;28;20394;-64
2022/05/14 05:10:26;;;;;;;9.60;4.00;;;;;;;-145.50;100.00;65435.88;5060349;28;20129;-63
2022/05/14 05:12:53;;;;;;;12.73;4.50;;;;;;;-145.50;100.00;65435.88;5070106;28;20336;-64
2022/05/14 05:15:20;;;;;;;10.75;4.68;;;;;;;-145.50;100.00;65435.88;5052494;28;22968;-64
2022/05/14 05:17:46;;;;;;;13.25;4.82;;;;;;;-145.50;100.00;65435.88;5059324;28;20131;-63
2022/05/14 05:20:13;;;;;;;10.63;4.78;;;;;;;-145.50;100.00;65435.88;5058458;28;20485;-64
2022/05/14 05:22:40;;;;;;;15.48;4.97;;;;;;;-145.50;100.00;65435.88;5058962;28;20135;-63
2022/05/14 05:25:08;;;;;;;12.57;4.93;;;;;;;-145.50;100.00;65435.88;5065992;28;20048;-64
2022/05/14 05:27:35;;;;;;;;;;;;;;;-145.50;100.00;65435.88;5053562;28;20056;-64
2022/05/14 05:30:06;;;;;;;11.82;4.35;;;;;;;-145.50;100.00;65435.88;5061854;28;20023;-64
2022/05/14 05:32:32;;;;;;;11.05;5.25;;;;;;;-145.50;100.00;65435.88;5068161;28;20426;-64
2022/05/14 05:34:59;;;;;;;11.77;5.05;;;;;;;-145.50;100.00;65435.88;5080768;28;20050;-64
2022/05/14 05:37:25;;;;;;;12.65;5.65;;;;;;;-145.50;100.00;65435.88;5089927;28;20048;-63
2022/05/14 05:39:52;;;;;;;15.57;5.25;;;;;;;-145.50;100.00;65435.88;5093596;28;20051;-64
2022/05/14 05:42:18;;;;;;;15.48;6.10;;;;;;;-145.50;100.00;65435.88;5083878;28;20110;-66
2022/05/14 05:44:45;;;;;;;13.98;6.18;;;;;;;-145.50;100.00;65435.88;5092868;28;20061;-63
2022/05/14 05:47:11;;;;;;;13.30;5.65;;;;;;;-145.50;100.00;65435.88;5089404;28;20235;-62
2022/05/14 05:49:39;;;;;;;18.60;6.25;;;;;;;-145.50;100.00;65435.88;5069079;28;20138;-63
2022/05/14 05:52:06;;;;;;;21.17;6.07;;;;;;;-145.50;100.00;65435.88;5076294;28;20048;-63
2022/05/14 05:57:18;;;;;;;16.13;6.22;;;;;;;-145.50;100.00;65435.88;5073110;28;20052;-64
2022/05/14 05:59:44;;;;;;;13.75;6.05;;;;;;;-145.50;100.00;65435.88;5081546;28;20413;-64
2022/05/14 06:02:11;;;;;;;14.75;6.55;;;;;;;-145.50;100.00;65435.88;5066054;28;20058;-64
2022/05/14 06:04:38;;;;;;;13.50;6.18;;;;;;;-145.50;100.00;65435.88;5076101;28;20044;-63
2022/05/14 06:07:04;;;;;;;18.05;6.25;;;;;;;-145.50;100.00;65435.88;5070718;28;20129;-63
2022/05/14 06:09:32;;;;;;;13.20;6.07;;;;;;;-145.50;100.00;65435.88;5080393;28;20044;-63
2022/05/14 06:11:59;;;;;;;17.40;6.32;;;;;;;-145.50;100.00;65435.88;5078791;28;20044;-64
2022/05/14 06:14:26;;;;;;;16.25;6.35;;;;;;;-145.50;100.00;65435.88;5072864;28;20396;-64
2022/05/14 06:16:53;;;;;;;13.27;6.63;;;;;;;-145.50;100.00;65435.88;5079725;28;20062;-64
2022/05/14 06:19:20;;;;;;;17.77;7.32;;;;;;;-145.50;100.00;65435.88;5064903;28;20498;-63
2022/05/14 06:21:46;;;;;;;17.48;7.40;;;;;;;-145.50;100.00;65435.88;5062704;28;20565;-64
2022/05/14 06:24:13;;;;;;;17.10;7.32;;;;;;;-145.50;100.00;65435.88;5072554;28;20052;-63
2022/05/14 06:26:40;;;;;;;21.95;7.45;;;;;;;-145.50;100.00;65435.88;5080110;28;20170;-64
2022/05/14 06:29:07;;;;;;;19.63;7.90;;;;;;;-145.50;100.00;65435.88;5080450;28;20486;-64
2022/05/14 06:31:34;;;;;;;22.48;8.00;;;;;;;-145.50;100.00;65435.88;5066424;28;20048;-64
2022/05/14 06:34:00;;;;;;;17.38;7.85;;;;;;;-145.50;100.00;65435.88;5075389;28;20167;-64
2022/05/14 06:36:27;;;;;;;15.63;7.10;;;;;;;-145.50;100.00;65435.88;5073239;28;20048;-63
2022/05/14 06:38:53;;;;;;;18.20;7.40;;;;;;;-145.50;100.00;65435.88;5081847;28;20051;-64
2022/05/14 06:41:20;;;;;;;18.25;7.28;;;;;;;-145.50;100.00;65435.88;5081330;28;20112;-64
2022/05/14 06:43:47;;;;;;;16.20;6.80;;;;;;;-145.50;100.00;65435.88;5072894;28;20170;-63
2022/05/14 06:46:13;;;;;;;23.15;8.02;;;;;;;-145.50;100.00;65435.88;5075375;28;20048;-63
2022/05/14 06:48:40;;;;;;;18.02;8.23;;;;;;;-145.50;100.00;65435.88;5067902;28;20044;-62
2022/05/14 06:51:14;;;;;;;19.42;7.65;;;;;;;-145.50;100.00;65435.88;5080225;28;20717;-64
2022/05/14 06:53:41;;;;;;;16.55;7.05;;;;;;;-145.50;100.00;65435.88;5064618;28;20505;-64
2022/05/14 06:56:08;;;;;;;22.42;8.82;;;;;;;-145.50;100.00;65435.88;5080214;28;20131;-63
2022/05/14 06:58:37;;;;;;;20.88;8.68;;;;;;;-145.50;100.00;65435.88;5079615;28;20052;-64
2022/05/14 07:01:05;;;;;;;17.92;8.25;;;;;;;-145.50;100.00;65435.88;5060491;28;20789;-64
2022/05/14 07:06:38;;;;;;;;;;;;;;;-145.50;100.00;65435.88;5063193;28;20074;-65
2022/05/14 07:09:35;;;;;;;18.33;8.70;;;;;;;-145.50;100.00;65435.88;5072533;28;19930;-63
2022/05/14 07:12:08;;;;;;;21.83;8.45;;;;;;;-145.50;100.00;65435.88;5055936;28;20051;-63
2022/05/14 07:14:34;;;;;;;21.02;8.90;;;;;;;-145.50;100.00;65435.88;5072830;28;20273;-62
2022/05/14 07:17:02;;;;;;;21.63;8.18;;;;;;;-145.50;100.00;65435.88;5061922;28;20420;-63
2022/05/14 07:19:29;;;;;;;18.75;9.27;;;;;;;-145.50;100.00;65435.88;5077777;28;20111;-64
2022/05/14 07:21:55;;;;;;;21.23;8.88;;;;;;;-145.50;100.00;65435.88;5059005;28;20052;-64
2022/05/14 07:24:28;;;;;;;23.33;9.75;;;;;;;-145.50;100.00;65435.88;5071511;28;20131;-64
2022/05/14 07:26:58;;;;;;;18.65;8.68;;;;;;;-145.50;100.00;65435.88;5066894;28;20048;-65
2022/05/14 07:29:26;;;;;;;24.88;9.32;;;;;;;-145.50;100.00;65435.88;5045219;28;20060;-64
2022/05/14 07:31:53;;;;;;;;;;;;;;;-145.50;100.00;65435.88;5058925;28;20075;-64
2022/05/14 07:34:21;;;;;;;20.27;9.07;;;;;;;-145.50;100.00;65435.88;5049743;28;19951;-64
2022/05/14 07:37:21;;;;;;;20.35;9.07;;;;;;;-145.50;100.00;65435.88;5066764;28;20462;-63
2022/05/14 07:40:10;;;;;;;19.63;9.18;;;;;;;-145.50;100.00;65435.88;5048181;28;20045;-64
2022/05/14 07:42:57;;;;;;;23.60;9.85;;;;;;;-145.50;100.00;65435.88;5056935;28;20273;-65
2022/05/14 07:45:34;;;;;;;24.02;10.27;;;;;;;-145.50;100.00;65435.88;5057612;28;20048;-65
2022/05/14 07:48:04;;;;;;;24.80;10.40;;;;;;;-145.50;100.00;65435.88;5076132;28;20135;-64
2022/05/14 07:50:31;;;;;;;25.83;9.60;;;;;;;-145.50;100.00;65435.88;5071294;28;20536;-63
2022/05/14 07:52:58;;;;;;;28.67;10.13;;;;;;;-145.50;100.00;65435.88;5074810;28;20111;-64
2022/05/14 07:55:25;;;;;;;21.70;9.07;;;;;;;-145.50;100.00;65435.88;5061631;28;20052;-63
2022/05/14 07:57:51;;;;;;;18.30;8.23;;;;;;;-145.50;100.00;65435.88;5054276;28;20212;-63
2022/05/14 08:00:19;;;;;;;16.05;8.38;;;;;;;-145.50;100.00;65435.88;5051219;28;20048;-64
2022/05/14 08:02:46;;;;;;;24.50;10.60;;;;;;;-145.50;100.00;65435.88;5056465;28;20058;-63
2022/05/14 08:05:14;;;;;;;24.17;8.90;;;;;;;-145.50;100.00;65435.88;5059015;28;20049;-63
2022/05/14 08:07:42;;;;;;;22.95;8.73;;;;;;;-145.50;100.00;65435.88;5052499;28;20059;-64
2022/05/14 08:10:09;;;;;;;22.35;7.88;;;;;;;-145.50;100.00;65435.88;5069710;28;20062;-64
2022/05/14 08:12:39;;;;;;;21.48;8.30;;;;;;;-145.50;100.00;65435.88;5057968;28;20087;-64
2022/05/14 08:15:07;;;;;;;21.40;8.75;;;;;;;-145.50;100.00;65435.88;5051676;28;20401;-65
2022/05/14 08:17:33;;;;;;;18.55;8.25;;;;;;;-145.50;100.00;65435.88;5069410;28;20062;-65
2022/05/14 08:19:59;;;;;;;26.08;8.90;;;;;;;-145.50;100.00;65435.88;5050210;28;20350;-64
2022/05/14 08:25:11;;;;;;;23.98;7.47;;;;;;;-145.50;100.00;65435.88;5051426;28;20646;-64
2022/05/14 08:27:44;;;;;;;17.27;7.40;;;;;;;-145.50;100.00;65435.88;5066611;28;20430;-65
2022/05/14 08:30:14;;;;;;;15.85;6.60;;;;;;;-145.50;100.00;65435.88;5072221;28;20044;-65
2022/05/14 08:32:40;;;;;;;23.65;7.50;;;;;;;-145.50;100.00;65435.88;5066625;28;20079;-65
2022/05/14 08:35:07;;;;;;;28.05;8.60;;;;;;;-145.50;100.00;65435.88;5074911;28;20126;-66
2022/05/14 08:37:34;;;;;;;25.00;7.57;;;;;;;-145.50;100.00;65435.88;5086332;28;20062;-66
2022/05/14 08:40:10;;;;;;;21.10;7.45;;;;;;;-145.50;100.00;65435.88;5099374;28;20138;-66
2022/05/14 08:42:41;;;;;;;14.98;7.15;;;;;;;-145.50;100.00;65435.88;5091843;28;20055;-66
2022/05/14 08:45:10;;;;;;;19.58;7.85;;;;;;;-145.50;100.00;65435.88;5095635;28;20059;-66
2022/05/14 08:47:44;;;;;;;20.98;7.50;;;;;;;-145.50;100.00;65435.88;5064935;28;20103;-65
2022/05/14 08:50:11;;;;;;;25.77;7.30;;;;;;;-145.50;100.00;65435.88;5053974;28;20239;-65
2022/05/14 08:52:38;;;;;;;24.92;7.43;;;;;;;-145.50;100.00;65435.88;5058832;28;20098;-66
2022/05/14 08:55:14;;;;;;;23.42;6.80;;;;;;;-145.50;100.00;65435.88;5055969;28;20131;-66
2022/05/14 08:58:12;;;;;;;21.38;8.13;;;;;;;-145.50;100.00;65435.88;5070800;28;20131;-65
2022/05/14 09:00:38;;;;;;;16.98;6.15;;;;;;;-145.50;100.00;65435.88;5074820;28;20060;-66
2022/05/14 09:03:05;;;;;;;17.70;6.57;;;;;;;-145.50;100.00;65435.88;5067549;28;20083;-66
2022/05/14 09:05:35;;;;;;;17.40;5.97;;;;;;;-145.50;100.00;65435.88;5050869;28;20048;-66
2022/05/14 09:08:02;;;;;;;14.93;5.50;;;;;;;-145.50;100.00;65435.88;5068615;28;20051;-66
2022/05/14 09:10:34;;;;;;;16.60;5.43;;;;;;;-145.50;100.00;65435.88;5045701;28;20048;-66
2022/05/14 09:13:21;;;;;;;14.05;5.20;;;;;;;-145.50;100.00;65435.88;5069914;28;20127;-66
2022/05/14 09:15:57;;;;;;;19.70;6.87;;;;;;;-145.50;100.00;65435.88;5068050;28;20548;-66
2022/05/14 09:18:29;;;;;;;19.92;6.32;;;;;;;-145.50;100.00;65435.88;5063971;28;20523;-66
2022/05/14 09:21:04;;;;;;;19.58;6.68;;;;;;;-145.50;100.00;65435.88;5071970;28;20048;-67
2022/05/14 09:23:34;;;;;;;20.00;5.90;;;;;;;-145.50;100.00;65435.88;5064618;28;20131;-65
2022/05/14 09:26:08;;;;;;;18.15;5.22;;;;;;;-145.50;100.00;65435.88;5067875;28;20513;-66
2022/05/14 09:29:01;;;;;;;24.05;5.13;;;;;;;-145.50;100.00;65435.88;5053757;28;20051;-64
2022/05/14 09:31:36;;;;;;;15.52;4.13;;;;;;;-145.50;100.00;65435.88;5068659;28;20055;-65
2022/05/14 09:34:11;;;;;;;17.77;4.45;;;;;;;-145.50;100.00;65435.88;5072287;28;20048;-64
2022/05/14 09:36:40;;;;;;;16.13;4.72;;;;;;;-145.50;100.00;65435.88;5080655;28;20135;-66
2022/05/14 09:39:12;;;;;;;15.05;4.35;;;;;;;-145.50;100.00;65435.88;5076246;28;20062;-65
2022/05/14 09:41:44;;;;;;;15.85;4.45;;;;;;;-145.50;100.00;65435.88;5082116;28;20052;-66
2022/05/14 09:44:19;;;;;;;18.08;6.03;;;;;;;-145.50;100.00;65435.88;5058097;28;20159;-64
2022/05/14 09:46:47;;;;;;;19.40;6.28;;;;;;;-145.50;100.00;65435.88;5059354;28;20336;-65
2022/05/14 09:49:24;;;;;;;20.27;7.05;;;;;;;-145.50;100.00;65435.88;5068302;28;20059;-64
2022/05/14 09:52:01;;;;;;;16.88;5.55;;;;;;;-145.50;100.00;65435.88;5065352;28;20045;-65
2022/05/14 09:54:33;;;;;;;14.25;5.50;;;;;;;-145.50;100.00;65435.88;5075437;28;20147;-65
2022/05/14 09:57:35;;;;;;;18.95;5.63;;;;;;;-145.50;100.00;65435.88;5055955;28;20415;-66
2022/05/14 10:00:22;;;;;;;13.38;4.97;;;;;;;-145.50;100.00;65435.88;5046293;28;20060;-66
2022/05/14 10:03:06;;;;;;;18.57;5.77;;;;;;;-145.50;100.00;65435.88;5051749;28;20083;-64
2022/05/14 10:05:50;;;;;;;14.77;5.18;;;;;;;-145.50;100.00;65435.88;5049949;28;20060;-63
2022/05/14 10:08:36;;;;;;;18.52;5.38;;;;;;;-145.50;100.00;65435.88;5051537;28;20175;-64
2022/05/14 10:11:18;;;;;;;13.82;4.97;;;;;;;-145.50;100.00;65435.88;5054574;28;20044;-64
2022/05/14 10:13:54;;;;;;;17.15;5.07;;;;;;;-145.50;100.00;65435.88;5063670;28;20672;-64
2022/05/14 10:16:34;;;;;;;19.90;6.43;;;;;;;-145.50;100.00;65435.88;5080489;28;20113;-65
2022/05/14 10:19:21;;;;;;;18.65;6.47;;;;;;;-145.50;100.00;65435.88;5073658;28;20052;-63
2022/05/14 10:22:06;;;;;;;21.88;6.82;;;;;;;-145.50;100.00;65435.88;5068821;28;20040;-64
2022/05/14 10:27:40;;;;;;;14.65;5.90;;;;;;;-145.50;100.00;65435.88;5059330;28;20507;-65
2022/05/14 10:30:20;;;;;;;19.80;6.03;;;;;;;-145.50;100.00;65435.88;5061198;28;20058;-65
2022/05/14 10:32:52;;;;;;;18.02;6.72;;;;;;;-145.50;100.00;65435.88;5058611;28;20437;-66
2022/05/14 10:35:35;;;;;;;21.70;5.60;;;;;;;-145.50;100.00;65435.88;5064180;28;20063;-66
2022/05/14 10:38:08;;;;;;;15.38;6.32;;;;;;;-145.50;100.00;65435.88;5049391;28;20056;-66
2022/05/14 10:40:46;;;;;;;19.05;5.18;;;;;;;-145.50;100.00;65435.88;5067023;28;20048;-65
2022/05/14 10:43:19;;;;;;;14.40;4.85;;;;;;;-145.50;100.00;65435.88;5052763;28;20058;-66
2022/05/14 10:45:48;;;;;;;14.07;4.20;;;;;;;-145.50;100.00;65435.88;5060403;28;20060;-64
2022/05/14 10:48:39;;;;;;;17.73;4.70;;;;;;;-145.50;100.00;65435.88;5077459;28;20079;-66
2022/05/14 10:51:10;;;;;;;18.60;5.43;;;;;;;-145.50;100.00;65435.88;5064329;28;20127;-65
2022/05/14 10:53:41;;;;;;;14.95;3.78;;;;;;;-145.50;100.00;65435.88;5053593;28;20044;-64
2022/05/14 10:56:13;;;;;;;11.73;4.50;;;;;;;-145.50;100.00;65435.88;5071386;28;20135;-64
2022/05/14 10:58:51;;;;;;;17.35;5.40;;;;;;;-145.50;100.00;65435.88;5062962;28;20064;-65
2022/05/14 11:01:41;;;;;;;13.00;3.88;;;;;;;-145.50;100.00;65435.88;5063896;28;20421;-64
2022/05/14 11:04:17;;;;;;;15.48;4.80;;;;;;;-145.50;100.00;65435.88;5074971;28;20056;-65
2022/05/14 11:06:54;;;;;;;11.63;4.65;;;;;;;-145.50;100.00;65435.88;5051865;28;20097;-66
2022/05/14 11:09:39;;;;;;;14.05;3.97;;;;;;;-145.50;100.00;65435.88;5071692;28;20062;-65
2022/05/14 11:12:12;;;;;;;15.07;4.78;;;;;;;-145.50;100.00;65435.88;5062237;28;20048;-65
2022/05/14 11:14:42;;;;;;;20.50;4.93;;;;;;;-145.50;100.00;65435.88;5072761;28;20083;-64
2022/05/14 11:17:17;;;;;;;15.60;4.40;;;;;;;-145.50;100.00;65435.88;5058038;28;20131;-64
2022/05/14 11:19:44;;;;;;;16.27;4.38;;;;;;;-145.50;100.00;65435.88;5072131;28;20060;-65
2022/05/14 11:22:21;;;;;;;16.27;4.35;;;;;;;-145.50;100.00;65435.88;5069293;28;20572;-63
2022/05/14 11:24:49;;;;;;;17.58;5.10;;;;;;;-145.50;100.00;65435.88;5078684;28;20505;-64
2022/05/14 11:27:35;;;;;;;;;;;;;;;-145.50;100.00;65435.88;5078470;28;20048;-65
2022/05/14 11:30:26;;;;;;;15.02;4.50;;;;;;;-145.50;100.00;65435.88;5071422;28;20360;-65
2022/05/14 11:32:54;;;;;;;19.00;4.47;;;;;;;-145.50;100.00;65435.88;5039922;28;20406;-64
2022/05/14 11:35:20;;;;;;;19.17;4.50;;;;;;;-145.50;100.00;65435.88;5066244;28;20048;-65
2022/05/14 11:37:50;;;;;;;15.68;5.18;;;;;;;-145.50;100.00;65435.88;5099613;28;20909;-65